VIR129R EGLL-KTPA
Flight info
| Callsign | VIR129R |
|---|---|
| Flight time | N/A |
| Altitude | 34000 |
| Route | CPT DCT DIDZA L9 OKSAW DCT BIBPE DCT BUCGO DCT FELCA DCT OFSOX DCT BANBA DCT TOBOR/M083F360 NATF MUSAK DCT CARAC/M082F380 M201 VEGAA Y493 TUBBS/N0474F380 Y493 BAHAA DCT HIBAC DADES2 |
| Aircraft | A333/H-SDE3GHIJ2J3J5M1RVWXY/LB2D1 |
Departure
| Time | 2026-05-07 12:59 |
|---|---|
| Airport | London Heathrow Airport (EGLL) |
Arrival
| Time | N/A |
|---|---|
| Airport | Tampa International Airport (KTPA) |
| Time | Latitude | Longitude | Altitude | Speed | Heading |
|---|---|---|---|---|---|
| 2026-05-07 12:33 | 51.47021 | -0.46528 | 90 ft | 0 kts | 55° |
| 2026-05-07 12:48 | 51.47013 | -0.46549 | 91 ft | 4 kts | 55° |
| 2026-05-07 12:48 | 51.46997 | -0.46585 | 92 ft | 4 kts | 55° |
| 2026-05-07 12:49 | 51.46985 | -0.46614 | 92 ft | 4 kts | 71° |
| 2026-05-07 12:49 | 51.46986 | -0.46650 | 91 ft | 4 kts | 128° |
| 2026-05-07 12:49 | 51.47004 | -0.46675 | 93 ft | 4 kts | 145° |
| 2026-05-07 12:49 | 51.47018 | -0.46691 | 92 ft | 0 kts | 145° |
| 2026-05-07 12:52 | 51.47018 | -0.46690 | 92 ft | 0 kts | 145° |
| 2026-05-07 12:52 | 51.47010 | -0.46681 | 91 ft | 3 kts | 145° |
| 2026-05-07 12:53 | 51.46984 | -0.46652 | 91 ft | 6 kts | 145° |
| 2026-05-07 12:53 | 51.46940 | -0.46604 | 93 ft | 9 kts | 145° |
| 2026-05-07 12:53 | 51.46881 | -0.46538 | 93 ft | 12 kts | 145° |
| 2026-05-07 12:53 | 51.46809 | -0.46458 | 94 ft | 14 kts | 145° |
| 2026-05-07 12:54 | 51.46761 | -0.46461 | 95 ft | 4 kts | 240° |
| 2026-05-07 12:54 | 51.46748 | -0.46519 | 95 ft | 6 kts | 259° |
| 2026-05-07 12:54 | 51.46748 | -0.46594 | 93 ft | 9 kts | 270° |
| 2026-05-07 12:54 | 51.46748 | -0.46710 | 93 ft | 12 kts | 270° |
| 2026-05-07 12:55 | 51.46747 | -0.46867 | 93 ft | 16 kts | 270° |
| 2026-05-07 12:55 | 51.46747 | -0.47057 | 93 ft | 19 kts | 269° |
| 2026-05-07 12:55 | 51.46746 | -0.47280 | 93 ft | 21 kts | 269° |
| 2026-05-07 12:55 | 51.46744 | -0.47530 | 91 ft | 23 kts | 270° |
| 2026-05-07 12:56 | 51.46743 | -0.47803 | 90 ft | 25 kts | 269° |
| 2026-05-07 12:56 | 51.46742 | -0.48097 | 92 ft | 27 kts | 269° |
| 2026-05-07 12:56 | 51.46741 | -0.48399 | 91 ft | 26 kts | 269° |
| 2026-05-07 12:56 | 51.46741 | -0.48655 | 90 ft | 18 kts | 269° |
| 2026-05-07 12:57 | 51.46716 | -0.48716 | 93 ft | 6 kts | 207° |
| 2026-05-07 12:57 | 51.46663 | -0.48739 | 94 ft | 10 kts | 194° |
| 2026-05-07 12:57 | 51.46588 | -0.48773 | 92 ft | 12 kts | 197° |
| 2026-05-07 12:57 | 51.46513 | -0.48765 | 93 ft | 10 kts | 152° |
| 2026-05-07 12:58 | 51.46480 | -0.48697 | 93 ft | 5 kts | 107° |
| 2026-05-07 12:58 | 51.46479 | -0.48655 | 94 ft | 4 kts | 89° |
| 2026-05-07 12:58 | 51.46480 | -0.48588 | 90 ft | 12 kts | 89° |
| 2026-05-07 12:58 | 51.46481 | -0.48301 | 92 ft | 49 kts | 90° |
| 2026-05-07 12:59 | 51.46482 | -0.47462 | 93 ft | 101 kts | 89° |
| 2026-05-07 12:59 | 51.46489 | -0.46072 | 92 ft | 147 kts | 90° |
| 2026-05-07 12:59 | 51.46496 | -0.44236 | 311 ft | 171 kts | 91° |
| 2026-05-07 12:59 | 51.46517 | -0.42333 | 1038 ft | 169 kts | 90° |
| 2026-05-07 13:00 | 51.46345 | -0.40423 | 1560 ft | 180 kts | 113° |
| 2026-05-07 13:00 | 51.45569 | -0.38886 | 2132 ft | 178 kts | 152° |
| 2026-05-07 13:00 | 51.44355 | -0.38458 | 2398 ft | 192 kts | 185° |
| 2026-05-07 13:00 | 51.43079 | -0.39266 | 2636 ft | 207 kts | 221° |
| 2026-05-07 13:01 | 51.42215 | -0.41230 | 2789 ft | 229 kts | 250° |
| 2026-05-07 13:01 | 51.42030 | -0.43860 | 3020 ft | 248 kts | 275° |
| 2026-05-07 13:01 | 51.42281 | -0.46647 | 3437 ft | 258 kts | 279° |
| 2026-05-07 13:01 | 51.42637 | -0.49508 | 3980 ft | 263 kts | 287° |
| 2026-05-07 13:02 | 51.43186 | -0.52297 | 4723 ft | 261 kts | 287° |
| 2026-05-07 13:02 | 51.43773 | -0.55050 | 5465 ft | 260 kts | 289° |
| 2026-05-07 13:02 | 51.44404 | -0.57780 | 6095 ft | 264 kts | 290° |
| 2026-05-07 13:02 | 51.45076 | -0.60562 | 6689 ft | 268 kts | 290° |
| 2026-05-07 13:03 | 51.45763 | -0.63364 | 7276 ft | 272 kts | 290° |
| 2026-05-07 13:03 | 51.46452 | -0.66173 | 7870 ft | 275 kts | 290° |
| 2026-05-07 13:03 | 51.47156 | -0.69061 | 8468 ft | 279 kts | 290° |
| 2026-05-07 13:03 | 51.47864 | -0.71994 | 9065 ft | 283 kts | 290° |
| 2026-05-07 13:04 | 51.48335 | -0.73956 | 9465 ft | 286 kts | 290° |
| 2026-05-07 13:04 | 51.49289 | -0.77946 | 10201 ft | 292 kts | 290° |
| 2026-05-07 13:04 | 51.50030 | -0.81063 | 10473 ft | 306 kts | 290° |
| 2026-05-07 13:04 | 51.50542 | -0.83225 | 10625 ft | 317 kts | 290° |
| 2026-05-07 13:05 | 51.51344 | -0.86609 | 10847 ft | 332 kts | 290° |
| 2026-05-07 13:05 | 51.52185 | -0.90156 | 11080 ft | 346 kts | 290° |
| 2026-05-07 13:05 | 51.53056 | -0.93837 | 11391 ft | 358 kts | 290° |
| 2026-05-07 13:05 | 51.53951 | -0.97616 | 11876 ft | 363 kts | 289° |
| 2026-05-07 13:06 | 51.54842 | -1.01385 | 12414 ft | 367 kts | 289° |
| 2026-05-07 13:06 | 51.55751 | -1.05242 | 12990 ft | 370 kts | 289° |
| 2026-05-07 13:06 | 51.56665 | -1.09131 | 13574 ft | 373 kts | 289° |
| 2026-05-07 13:06 | 51.57585 | -1.13051 | 14119 ft | 375 kts | 289° |
| 2026-05-07 13:07 | 51.58510 | -1.16998 | 14650 ft | 377 kts | 289° |
| 2026-05-07 13:07 | 51.59439 | -1.20966 | 15172 ft | 379 kts | 289° |
| 2026-05-07 13:07 | 51.60358 | -1.24902 | 15699 ft | 381 kts | 289° |
| 2026-05-07 13:07 | 51.61294 | -1.28922 | 16222 ft | 383 kts | 289° |
| 2026-05-07 13:08 | 51.62109 | -1.33012 | 16733 ft | 384 kts | 283° |
| 2026-05-07 13:08 | 51.62743 | -1.37192 | 17253 ft | 385 kts | 281° |
| 2026-05-07 13:08 | 51.63311 | -1.41416 | 17758 ft | 387 kts | 280° |
| 2026-05-07 13:08 | 51.63832 | -1.45628 | 18259 ft | 389 kts | 279° |
| 2026-05-07 13:09 | 51.64335 | -1.49912 | 18699 ft | 391 kts | 279° |
| 2026-05-07 13:09 | 51.64833 | -1.54239 | 19117 ft | 393 kts | 279° |
| 2026-05-07 13:09 | 51.65333 | -1.58601 | 19525 ft | 395 kts | 279° |
| 2026-05-07 13:09 | 51.65834 | -1.62967 | 19945 ft | 397 kts | 279° |
| 2026-05-07 13:10 | 51.66341 | -1.67358 | 20371 ft | 399 kts | 279° |
| 2026-05-07 13:10 | 51.66850 | -1.71768 | 20762 ft | 401 kts | 279° |
| 2026-05-07 13:10 | 51.67363 | -1.76201 | 21158 ft | 403 kts | 279° |
| 2026-05-07 13:10 | 51.67872 | -1.80605 | 21544 ft | 405 kts | 279° |
| 2026-05-07 13:11 | 51.68388 | -1.85085 | 21928 ft | 407 kts | 279° |
| 2026-05-07 13:11 | 51.68903 | -1.89582 | 22309 ft | 409 kts | 279° |
| 2026-05-07 13:11 | 51.69421 | -1.94113 | 22684 ft | 411 kts | 279° |
| 2026-05-07 13:11 | 51.69938 | -1.98650 | 23082 ft | 412 kts | 279° |
| 2026-05-07 13:12 | 51.70455 | -2.03219 | 23458 ft | 414 kts | 279° |
| 2026-05-07 13:12 | 51.70974 | -2.07807 | 23781 ft | 416 kts | 279° |
| 2026-05-07 13:12 | 51.71492 | -2.12412 | 24064 ft | 418 kts | 279° |
| 2026-05-07 13:12 | 51.72010 | -2.17042 | 24359 ft | 421 kts | 278° |
| 2026-05-07 13:13 | 51.72525 | -2.21650 | 24629 ft | 423 kts | 278° |
| 2026-05-07 13:13 | 51.73050 | -2.26371 | 24908 ft | 425 kts | 278° |
| 2026-05-07 13:13 | 51.73573 | -2.31083 | 25209 ft | 427 kts | 278° |
| 2026-05-07 13:13 | 51.74088 | -2.35745 | 25486 ft | 429 kts | 278° |
| 2026-05-07 13:14 | 51.74612 | -2.40509 | 25772 ft | 431 kts | 278° |
| 2026-05-07 13:14 | 51.75135 | -2.45280 | 26069 ft | 432 kts | 278° |
| 2026-05-07 13:14 | 51.75657 | -2.50067 | 26357 ft | 434 kts | 278° |
| 2026-05-07 13:14 | 51.76181 | -2.54887 | 26632 ft | 436 kts | 278° |
| 2026-05-07 13:15 | 51.76703 | -2.59720 | 26906 ft | 438 kts | 278° |
| 2026-05-07 13:15 | 51.77144 | -2.64592 | 27184 ft | 439 kts | 276° |
| 2026-05-07 13:15 | 51.77494 | -2.69502 | 27444 ft | 441 kts | 275° |
| 2026-05-07 13:15 | 51.77799 | -2.74452 | 27710 ft | 443 kts | 274° |
| 2026-05-07 13:16 | 51.78087 | -2.79387 | 27769 ft | 450 kts | 274° |
| 2026-05-07 13:16 | 51.78380 | -2.84421 | 28032 ft | 452 kts | 274° |
| 2026-05-07 13:16 | 51.78680 | -2.89482 | 28333 ft | 453 kts | 274° |
| 2026-05-07 13:16 | 51.78987 | -2.94571 | 28640 ft | 454 kts | 274° |
| 2026-05-07 13:17 | 51.79300 | -2.99667 | 28900 ft | 456 kts | 274° |
| 2026-05-07 13:17 | 51.79614 | -3.04778 | 29150 ft | 458 kts | 274° |
| 2026-05-07 13:17 | 51.79929 | -3.09923 | 29370 ft | 460 kts | 274° |
| 2026-05-07 13:17 | 51.80243 | -3.15078 | 29621 ft | 462 kts | 274° |
| 2026-05-07 13:18 | 51.80558 | -3.20264 | 29834 ft | 464 kts | 274° |
| 2026-05-07 13:18 | 51.80866 | -3.25412 | 30053 ft | 467 kts | 274° |
| 2026-05-07 13:18 | 51.81179 | -3.30641 | 30282 ft | 468 kts | 274° |
| 2026-05-07 13:18 | 51.81489 | -3.35884 | 30581 ft | 467 kts | 274° |
| 2026-05-07 13:19 | 51.81796 | -3.41107 | 30902 ft | 466 kts | 274° |
| 2026-05-07 13:19 | 51.82099 | -3.46315 | 31285 ft | 463 kts | 273° |
| 2026-05-07 13:19 | 51.82411 | -3.51501 | 31572 ft | 463 kts | 275° |
| 2026-05-07 13:19 | 51.82943 | -3.56636 | 31860 ft | 463 kts | 278° |
| 2026-05-07 13:20 | 51.83548 | -3.61689 | 32148 ft | 463 kts | 279° |
| 2026-05-07 13:20 | 51.84189 | -3.66784 | 32425 ft | 462 kts | 280° |
| 2026-05-07 13:20 | 51.84846 | -3.71874 | 32643 ft | 462 kts | 279° |
| 2026-05-07 13:20 | 51.85508 | -3.76962 | 32904 ft | 462 kts | 280° |
| 2026-05-07 13:21 | 51.86168 | -3.82042 | 33166 ft | 462 kts | 279° |
| 2026-05-07 13:21 | 51.86827 | -3.87133 | 33402 ft | 461 kts | 280° |
| 2026-05-07 13:21 | 51.87478 | -3.92207 | 33692 ft | 460 kts | 280° |
| 2026-05-07 13:21 | 51.88122 | -3.97269 | 33991 ft | 458 kts | 280° |
| 2026-05-07 13:22 | 51.88762 | -4.02320 | 34191 ft | 458 kts | 279° |
| 2026-05-07 13:22 | 51.89398 | -4.07367 | 34364 ft | 457 kts | 279° |
| 2026-05-07 13:22 | 51.90034 | -4.12437 | 34533 ft | 458 kts | 279° |
| 2026-05-07 13:22 | 51.90667 | -4.17500 | 34693 ft | 458 kts | 279° |
| 2026-05-07 13:23 | 51.91289 | -4.22496 | 34846 ft | 458 kts | 279° |
| 2026-05-07 13:23 | 51.91919 | -4.27564 | 35011 ft | 458 kts | 279° |
| 2026-05-07 13:23 | 51.92544 | -4.32622 | 35162 ft | 458 kts | 279° |
| 2026-05-07 13:23 | 51.93168 | -4.37683 | 35316 ft | 458 kts | 279° |
| 2026-05-07 13:24 | 51.93790 | -4.42751 | 35474 ft | 458 kts | 279° |
| 2026-05-07 13:24 | 51.94410 | -4.47813 | 35637 ft | 458 kts | 279° |
| 2026-05-07 13:24 | 51.95027 | -4.52875 | 35780 ft | 458 kts | 279° |
| 2026-05-07 13:24 | 51.95642 | -4.57941 | 35928 ft | 458 kts | 279° |
| 2026-05-07 13:25 | 51.96864 | -4.68075 | 36019 ft | 462 kts | 279° |
| 2026-05-07 13:25 | 51.98092 | -4.78327 | 36014 ft | 462 kts | 279° |
| 2026-05-07 13:26 | 51.99309 | -4.88560 | 36011 ft | 461 kts | 279° |
| 2026-05-07 13:26 | 52.00516 | -4.98791 | 36012 ft | 461 kts | 279° |
| 2026-05-07 13:27 | 52.01704 | -5.08938 | 36013 ft | 460 kts | 279° |
| 2026-05-07 13:27 | 52.02615 | -5.19210 | 36012 ft | 458 kts | 269° |
| 2026-05-07 13:28 | 52.02274 | -5.29509 | 36012 ft | 456 kts | 263° |
| 2026-05-07 13:28 | 52.01584 | -5.39752 | 36012 ft | 456 kts | 261° |
| 2026-05-07 13:29 | 52.00823 | -5.49980 | 36010 ft | 456 kts | 261° |
| 2026-05-07 13:29 | 52.00068 | -5.60196 | 36010 ft | 456 kts | 261° |
| 2026-05-07 13:30 | 51.99325 | -5.70354 | 36010 ft | 456 kts | 261° |
| 2026-05-07 13:30 | 51.98574 | -5.80576 | 36009 ft | 456 kts | 261° |
| 2026-05-07 13:31 | 51.97814 | -5.90800 | 36007 ft | 455 kts | 261° |
| 2026-05-07 13:31 | 51.97048 | -6.00987 | 36004 ft | 454 kts | 261° |
| 2026-05-07 13:32 | 51.96278 | -6.11080 | 36004 ft | 454 kts | 261° |
| 2026-05-07 13:32 | 51.95495 | -6.21235 | 36004 ft | 454 kts | 261° |
| 2026-05-07 13:33 | 51.94744 | -6.31396 | 35998 ft | 454 kts | 262° |
| 2026-05-07 13:33 | 51.94029 | -6.41573 | 35999 ft | 454 kts | 262° |
| 2026-05-07 13:34 | 51.92944 | -6.56825 | 35996 ft | 454 kts | 261° |
| 2026-05-07 13:35 | 51.92207 | -6.66934 | 35997 ft | 454 kts | 261° |
| 2026-05-07 13:35 | 51.91454 | -6.77116 | 35996 ft | 454 kts | 261° |
| 2026-05-07 13:36 | 51.90695 | -6.87260 | 35995 ft | 454 kts | 261° |
| 2026-05-07 13:36 | 51.89933 | -6.97324 | 35993 ft | 453 kts | 261° |
| 2026-05-07 13:37 | 51.89157 | -7.07459 | 35990 ft | 453 kts | 261° |
| 2026-05-07 13:37 | 51.88372 | -7.17591 | 35990 ft | 453 kts | 261° |
| 2026-05-07 13:38 | 51.87583 | -7.27664 | 35987 ft | 453 kts | 261° |
| 2026-05-07 13:38 | 51.86782 | -7.37776 | 35989 ft | 453 kts | 261° |
| 2026-05-07 13:39 | 51.85970 | -7.47904 | 35987 ft | 453 kts | 261° |
| 2026-05-07 13:39 | 51.85155 | -7.57970 | 35987 ft | 453 kts | 261° |
| 2026-05-07 13:40 | 51.84327 | -7.68076 | 35988 ft | 453 kts | 260° |
| 2026-05-07 13:40 | 51.83495 | -7.78133 | 35987 ft | 453 kts | 260° |
| 2026-05-07 13:41 | 51.82650 | -7.88237 | 35988 ft | 452 kts | 260° |
| 2026-05-07 13:41 | 51.81798 | -7.98307 | 35984 ft | 452 kts | 260° |
| 2026-05-07 13:42 | 51.80938 | -8.08375 | 35989 ft | 452 kts | 260° |
| 2026-05-07 13:42 | 51.80067 | -8.18455 | 35985 ft | 452 kts | 260° |
| 2026-05-07 13:43 | 51.79194 | -8.28468 | 35994 ft | 452 kts | 260° |
| 2026-05-07 13:43 | 51.78309 | -8.38523 | 35991 ft | 452 kts | 260° |
| 2026-05-07 13:44 | 51.77418 | -8.48543 | 35966 ft | 452 kts | 260° |
| 2026-05-07 13:44 | 51.76514 | -8.58595 | 35966 ft | 452 kts | 260° |
| 2026-05-07 13:45 | 51.75603 | -8.68628 | 35970 ft | 452 kts | 260° |
| 2026-05-07 13:45 | 51.74690 | -8.78601 | 35975 ft | 451 kts | 260° |
| 2026-05-07 13:46 | 51.73765 | -8.88605 | 35976 ft | 450 kts | 260° |
| 2026-05-07 13:46 | 51.72829 | -8.98612 | 35976 ft | 450 kts | 260° |
| 2026-05-07 13:47 | 51.71886 | -9.08610 | 35977 ft | 450 kts | 259° |
| 2026-05-07 13:47 | 51.70935 | -9.18600 | 35978 ft | 450 kts | 259° |
| 2026-05-07 13:48 | 51.69981 | -9.28531 | 35980 ft | 450 kts | 260° |
| 2026-05-07 13:48 | 51.69017 | -9.38480 | 35980 ft | 449 kts | 260° |
| 2026-05-07 13:49 | 51.68043 | -9.48429 | 35975 ft | 449 kts | 260° |
| 2026-05-07 13:49 | 51.67062 | -9.58365 | 35980 ft | 449 kts | 259° |
| 2026-05-07 13:50 | 51.66077 | -9.68250 | 35981 ft | 449 kts | 259° |
| 2026-05-07 13:50 | 51.65079 | -9.78177 | 35979 ft | 448 kts | 260° |
| 2026-05-07 13:51 | 51.64074 | -9.88092 | 35982 ft | 447 kts | 260° |
| 2026-05-07 13:51 | 51.63062 | -9.97988 | 35982 ft | 447 kts | 260° |
| 2026-05-07 13:52 | 51.62049 | -10.07809 | 35979 ft | 447 kts | 260° |
| 2026-05-07 13:52 | 51.61188 | -10.16092 | 35980 ft | 447 kts | 260° |
| 2026-05-07 13:53 | 51.60160 | -10.25905 | 35979 ft | 447 kts | 259° |
| 2026-05-07 13:53 | 51.59115 | -10.35799 | 35977 ft | 447 kts | 259° |
| 2026-05-07 13:54 | 51.58070 | -10.45604 | 35977 ft | 447 kts | 259° |
| 2026-05-07 13:54 | 51.57009 | -10.55478 | 35973 ft | 447 kts | 259° |
| 2026-05-07 13:55 | 51.55941 | -10.65335 | 35972 ft | 448 kts | 260° |
| 2026-05-07 13:55 | 51.54865 | -10.75191 | 35974 ft | 447 kts | 260° |
| 2026-05-07 13:56 | 51.53782 | -10.85026 | 35971 ft | 446 kts | 260° |
| 2026-05-07 13:56 | 51.52692 | -10.94843 | 35971 ft | 446 kts | 259° |
| 2026-05-07 13:57 | 51.51600 | -11.04602 | 35968 ft | 446 kts | 259° |
| 2026-05-07 13:57 | 51.50492 | -11.14431 | 35970 ft | 446 kts | 259° |
| 2026-05-07 13:58 | 51.49381 | -11.24204 | 35966 ft | 445 kts | 259° |
| 2026-05-07 13:58 | 51.48261 | -11.33980 | 35966 ft | 445 kts | 259° |
| 2026-05-07 13:59 | 51.47139 | -11.43708 | 35966 ft | 445 kts | 259° |
| 2026-05-07 13:59 | 51.46003 | -11.53473 | 35966 ft | 445 kts | 259° |
| 2026-05-07 14:00 | 51.44859 | -11.63231 | 35968 ft | 444 kts | 259° |
| 2026-05-07 14:00 | 51.43715 | -11.72929 | 35969 ft | 442 kts | 259° |
| 2026-05-07 14:01 | 51.42569 | -11.82561 | 35965 ft | 443 kts | 259° |
| 2026-05-07 14:01 | 51.41406 | -11.92258 | 35963 ft | 443 kts | 259° |
| 2026-05-07 14:02 | 51.40234 | -12.01963 | 35963 ft | 443 kts | 259° |
| 2026-05-07 14:02 | 51.39058 | -12.11634 | 35963 ft | 441 kts | 259° |
| 2026-05-07 14:03 | 51.37886 | -12.21197 | 35966 ft | 440 kts | 259° |
| 2026-05-07 14:03 | 51.36698 | -12.30831 | 35966 ft | 440 kts | 259° |
| 2026-05-07 14:04 | 51.35504 | -12.40437 | 35963 ft | 440 kts | 259° |
| 2026-05-07 14:04 | 51.34302 | -12.50039 | 35963 ft | 440 kts | 258° |
| 2026-05-07 14:05 | 51.33095 | -12.59620 | 35962 ft | 438 kts | 258° |
| 2026-05-07 14:05 | 51.31889 | -12.69116 | 35963 ft | 437 kts | 258° |
| 2026-05-07 14:06 | 51.30669 | -12.78666 | 35963 ft | 437 kts | 258° |
| 2026-05-07 14:06 | 51.29441 | -12.88209 | 35963 ft | 437 kts | 258° |
| 2026-05-07 14:07 | 51.28215 | -12.97671 | 35961 ft | 437 kts | 258° |
| 2026-05-07 14:07 | 51.26978 | -13.07160 | 35959 ft | 434 kts | 258° |
| 2026-05-07 14:08 | 51.25740 | -13.16583 | 35959 ft | 433 kts | 258° |
| 2026-05-07 14:08 | 51.24498 | -13.25983 | 35960 ft | 433 kts | 258° |
| 2026-05-07 14:09 | 51.23255 | -13.35327 | 35966 ft | 433 kts | 258° |
| 2026-05-07 14:09 | 51.21996 | -13.44729 | 35974 ft | 433 kts | 258° |
| 2026-05-07 14:10 | 51.20736 | -13.54074 | 35962 ft | 430 kts | 258° |
| 2026-05-07 14:10 | 51.19473 | -13.63385 | 35963 ft | 429 kts | 258° |
| 2026-05-07 14:11 | 51.18203 | -13.72688 | 35963 ft | 429 kts | 258° |
| 2026-05-07 14:11 | 51.16925 | -13.81988 | 35963 ft | 429 kts | 258° |
| 2026-05-07 14:12 | 51.15648 | -13.91222 | 35967 ft | 429 kts | 257° |
| 2026-05-07 14:12 | 51.14359 | -14.00483 | 35965 ft | 427 kts | 257° |
| 2026-05-07 14:13 | 51.13069 | -14.09702 | 35966 ft | 426 kts | 257° |
| 2026-05-07 14:13 | 51.11770 | -14.18925 | 35966 ft | 426 kts | 257° |
| 2026-05-07 14:14 | 51.10473 | -14.28080 | 35966 ft | 426 kts | 257° |
| 2026-05-07 14:14 | 51.09161 | -14.37281 | 35966 ft | 426 kts | 257° |
| 2026-05-07 14:15 | 51.07842 | -14.46472 | 35967 ft | 425 kts | 257° |
| 2026-05-07 14:15 | 51.06519 | -14.55643 | 35966 ft | 425 kts | 257° |
| 2026-05-07 14:16 | 51.05188 | -14.64810 | 35968 ft | 425 kts | 257° |
| 2026-05-07 14:16 | 51.03859 | -14.73909 | 35969 ft | 425 kts | 257° |
| 2026-05-07 14:17 | 51.02513 | -14.83073 | 35969 ft | 425 kts | 257° |
| 2026-05-07 14:17 | 51.01161 | -14.92222 | 35968 ft | 425 kts | 257° |
| 2026-05-07 14:18 | 50.99792 | -15.01298 | 35967 ft | 425 kts | 256° |
| 2026-05-07 14:18 | 50.98242 | -15.10362 | 35966 ft | 425 kts | 255° |
| 2026-05-07 14:19 | 50.96623 | -15.19384 | 35968 ft | 425 kts | 254° |
| 2026-05-07 14:19 | 50.95001 | -15.28429 | 35970 ft | 424 kts | 254° |
| 2026-05-07 14:20 | 50.93405 | -15.37371 | 35968 ft | 423 kts | 254° |
| 2026-05-07 14:20 | 50.91794 | -15.46381 | 35971 ft | 423 kts | 254° |
| 2026-05-07 14:21 | 50.90181 | -15.55364 | 35971 ft | 423 kts | 254° |
| 2026-05-07 14:21 | 50.88564 | -15.64321 | 35972 ft | 423 kts | 254° |
| 2026-05-07 14:22 | 50.86937 | -15.73280 | 35973 ft | 423 kts | 254° |
| 2026-05-07 14:22 | 50.85314 | -15.82180 | 35974 ft | 422 kts | 254° |
| 2026-05-07 14:23 | 50.83675 | -15.91119 | 35977 ft | 422 kts | 254° |
| 2026-05-07 14:23 | 50.82032 | -16.00041 | 35977 ft | 422 kts | 254° |
| 2026-05-07 14:24 | 50.80389 | -16.08917 | 35978 ft | 422 kts | 253° |
| 2026-05-07 14:24 | 50.78731 | -16.17834 | 35977 ft | 422 kts | 253° |
| 2026-05-07 14:25 | 50.77062 | -16.26765 | 35973 ft | 422 kts | 253° |
| 2026-05-07 14:25 | 50.75400 | -16.35620 | 35974 ft | 422 kts | 253° |
| 2026-05-07 14:26 | 50.73723 | -16.44508 | 35975 ft | 422 kts | 253° |
| 2026-05-07 14:26 | 50.72036 | -16.53408 | 35974 ft | 422 kts | 253° |
| 2026-05-07 14:27 | 50.70356 | -16.62233 | 35977 ft | 422 kts | 253° |
| 2026-05-07 14:27 | 50.68656 | -16.71116 | 35977 ft | 422 kts | 253° |
| 2026-05-07 14:28 | 50.66952 | -16.79982 | 35977 ft | 422 kts | 253° |
| 2026-05-07 14:28 | 50.65240 | -16.88843 | 35976 ft | 422 kts | 253° |
| 2026-05-07 14:29 | 50.63534 | -16.97640 | 35969 ft | 422 kts | 253° |
| 2026-05-07 14:29 | 50.61810 | -17.06484 | 35974 ft | 422 kts | 253° |
| 2026-05-07 14:30 | 50.60078 | -17.15328 | 35976 ft | 422 kts | 253° |
| 2026-05-07 14:30 | 50.58339 | -17.24167 | 35977 ft | 422 kts | 252° |
| 2026-05-07 14:31 | 50.56603 | -17.32951 | 35975 ft | 422 kts | 252° |
| 2026-05-07 14:31 | 50.54849 | -17.41788 | 35972 ft | 422 kts | 252° |
| 2026-05-07 14:32 | 50.53101 | -17.50552 | 35971 ft | 423 kts | 252° |
| 2026-05-07 14:32 | 50.51334 | -17.59373 | 35972 ft | 423 kts | 252° |
| 2026-05-07 14:33 | 50.49560 | -17.68189 | 35971 ft | 423 kts | 252° |
| 2026-05-07 14:33 | 50.47789 | -17.76948 | 35971 ft | 423 kts | 252° |
| 2026-05-07 14:34 | 50.46003 | -17.85744 | 35969 ft | 423 kts | 252° |
| 2026-05-07 14:34 | 50.44206 | -17.94557 | 35969 ft | 424 kts | 252° |
| 2026-05-07 14:35 | 50.42400 | -18.03373 | 35966 ft | 424 kts | 252° |
| 2026-05-07 14:35 | 50.40599 | -18.12125 | 35966 ft | 424 kts | 252° |
| 2026-05-07 14:36 | 50.38779 | -18.20931 | 35966 ft | 424 kts | 252° |
| 2026-05-07 14:36 | 50.36950 | -18.29738 | 35966 ft | 424 kts | 252° |
| 2026-05-07 14:37 | 50.35127 | -18.38483 | 35964 ft | 426 kts | 252° |
| 2026-05-07 14:37 | 50.32350 | -18.51728 | 35963 ft | 426 kts | 251° |
| 2026-05-07 14:38 | 50.30495 | -18.60528 | 35947 ft | 426 kts | 251° |